sensor_id;sensor_type;location;lat;lon;timestamp;P1;durP1;ratioP1;P2;durP2;ratioP2
66603;SDS011;53460;39.612;8.822;2023-11-19T00:00:42;7.57;;;2.05;;
66603;SDS011;53460;39.612;8.822;2023-11-19T00:03:08;5.35;;;3.10;;
66603;SDS011;53460;39.612;8.822;2023-11-19T00:05:33;3.28;;;2.55;;
66603;SDS011;53460;39.612;8.822;2023-11-19T00:07:59;5.50;;;2.33;;
66603;SDS011;53460;39.612;8.822;2023-11-19T00:10:25;8.10;;;2.30;;
66603;SDS011;53460;39.612;8.822;2023-11-19T00:12:50;4.88;;;2.13;;
66603;SDS011;53460;39.612;8.822;2023-11-19T00:15:16;7.07;;;2.80;;
66603;SDS011;53460;39.612;8.822;2023-11-19T00:17:46;10.10;;;2.20;;
66603;SDS011;53460;39.612;8.822;2023-11-19T00:20:14;5.65;;;1.90;;
66603;SDS011;53460;39.612;8.822;2023-11-19T00:22:41;5.28;;;2.08;;
66603;SDS011;53460;39.612;8.822;2023-11-19T00:25:07;5.72;;;1.92;;
66603;SDS011;53460;39.612;8.822;2023-11-19T00:27:36;3.55;;;1.65;;
66603;SDS011;53460;39.612;8.822;2023-11-19T00:30:05;5.47;;;1.77;;
66603;SDS011;53460;39.612;8.822;2023-11-19T00:32:32;5.18;;;2.03;;
66603;SDS011;53460;39.612;8.822;2023-11-19T00:34:59;6.00;;;1.95;;
66603;SDS011;53460;39.612;8.822;2023-11-19T00:37:24;5.93;;;2.03;;
66603;SDS011;53460;39.612;8.822;2023-11-19T00:39:50;4.50;;;2.42;;
66603;SDS011;53460;39.612;8.822;2023-11-19T00:42:17;6.82;;;1.63;;
66603;SDS011;53460;39.612;8.822;2023-11-19T00:44:42;6.28;;;2.00;;
66603;SDS011;53460;39.612;8.822;2023-11-19T00:47:08;6.10;;;1.73;;
66603;SDS011;53460;39.612;8.822;2023-11-19T00:49:34;5.32;;;1.92;;
66603;SDS011;53460;39.612;8.822;2023-11-19T00:52:00;5.60;;;1.55;;
66603;SDS011;53460;39.612;8.822;2023-11-19T00:54:25;5.22;;;1.33;;
66603;SDS011;53460;39.612;8.822;2023-11-19T00:56:54;6.45;;;1.90;;
66603;SDS011;53460;39.612;8.822;2023-11-19T00:59:20;3.85;;;1.63;;
66603;SDS011;53460;39.612;8.822;2023-11-19T01:01:46;4.03;;;1.35;;
66603;SDS011;53460;39.612;8.822;2023-11-19T01:04:16;6.13;;;1.50;;
66603;SDS011;53460;39.612;8.822;2023-11-19T01:06:42;2.97;;;1.33;;
66603;SDS011;53460;39.612;8.822;2023-11-19T01:09:07;3.80;;;1.83;;
66603;SDS011;53460;39.612;8.822;2023-11-19T01:11:34;6.03;;;2.40;;
66603;SDS011;53460;39.612;8.822;2023-11-19T01:14:00;6.68;;;2.40;;
66603;SDS011;53460;39.612;8.822;2023-11-19T01:16:26;5.60;;;2.22;;
66603;SDS011;53460;39.612;8.822;2023-11-19T01:18:52;6.28;;;2.17;;
66603;SDS011;53460;39.612;8.822;2023-11-19T01:21:17;6.07;;;2.10;;
66603;SDS011;53460;39.612;8.822;2023-11-19T01:23:44;4.45;;;1.67;;
66603;SDS011;53460;39.612;8.822;2023-11-19T01:26:10;5.65;;;1.83;;
66603;SDS011;53460;39.612;8.822;2023-11-19T01:28:36;8.40;;;2.00;;
66603;SDS011;53460;39.612;8.822;2023-11-19T01:31:02;5.45;;;1.83;;
66603;SDS011;53460;39.612;8.822;2023-11-19T01:33:29;4.38;;;1.90;;
66603;SDS011;53460;39.612;8.822;2023-11-19T01:35:55;5.15;;;1.58;;
66603;SDS011;53460;39.612;8.822;2023-11-19T01:38:24;5.25;;;1.60;;
66603;SDS011;53460;39.612;8.822;2023-11-19T01:40:50;5.40;;;1.67;;
66603;SDS011;53460;39.612;8.822;2023-11-19T01:43:31;4.50;;;1.83;;
66603;SDS011;53460;39.612;8.822;2023-11-19T01:45:58;3.90;;;1.67;;
66603;SDS011;53460;39.612;8.822;2023-11-19T01:48:24;8.85;;;2.75;;
66603;SDS011;53460;39.612;8.822;2023-11-19T01:50:50;4.55;;;2.22;;
66603;SDS011;53460;39.612;8.822;2023-11-19T01:53:17;3.25;;;1.90;;
66603;SDS011;53460;39.612;8.822;2023-11-19T01:55:43;3.85;;;1.75;;
66603;SDS011;53460;39.612;8.822;2023-11-19T01:58:09;5.25;;;1.83;;
66603;SDS011;53460;39.612;8.822;2023-11-19T02:00:35;5.70;;;1.80;;
66603;SDS011;53460;39.612;8.822;2023-11-19T02:03:01;8.25;;;1.83;;
66603;SDS011;53460;39.612;8.822;2023-11-19T02:05:28;4.70;;;1.70;;
66603;SDS011;53460;39.612;8.822;2023-11-19T02:07:54;8.07;;;1.80;;
66603;SDS011;53460;39.612;8.822;2023-11-19T02:10:19;10.57;;;2.78;;
66603;SDS011;53460;39.612;8.822;2023-11-19T02:12:45;7.28;;;1.92;;
66603;SDS011;53460;39.612;8.822;2023-11-19T02:15:11;5.85;;;1.55;;
66603;SDS011;53460;39.612;8.822;2023-11-19T02:17:37;2.75;;;1.42;;
66603;SDS011;53460;39.612;8.822;2023-11-19T02:20:03;4.47;;;1.63;;
66603;SDS011;53460;39.612;8.822;2023-11-19T02:22:34;5.88;;;1.77;;
66603;SDS011;53460;39.612;8.822;2023-11-19T02:25:00;4.05;;;2.22;;
66603;SDS011;53460;39.612;8.822;2023-11-19T02:30:17;5.45;;;1.45;;
66603;SDS011;53460;39.612;8.822;2023-11-19T02:32:42;5.43;;;1.98;;
66603;SDS011;53460;39.612;8.822;2023-11-19T02:35:08;4.30;;;1.55;;
66603;SDS011;53460;39.612;8.822;2023-11-19T02:37:34;5.43;;;1.38;;
66603;SDS011;53460;39.612;8.822;2023-11-19T02:40:00;4.93;;;1.60;;
66603;SDS011;53460;39.612;8.822;2023-11-19T02:42:28;4.88;;;1.35;;
66603;SDS011;53460;39.612;8.822;2023-11-19T02:44:54;6.40;;;1.90;;
66603;SDS011;53460;39.612;8.822;2023-11-19T02:47:19;6.13;;;1.50;;
66603;SDS011;53460;39.612;8.822;2023-11-19T02:49:46;4.80;;;0.93;;
66603;SDS011;53460;39.612;8.822;2023-11-19T02:52:13;5.45;;;1.45;;
66603;SDS011;53460;39.612;8.822;2023-11-19T02:54:39;7.50;;;1.60;;
66603;SDS011;53460;39.612;8.822;2023-11-19T02:57:06;7.57;;;1.80;;
66603;SDS011;53460;39.612;8.822;2023-11-19T02:59:35;2.67;;;1.17;;
66603;SDS011;53460;39.612;8.822;2023-11-19T03:02:07;3.85;;;1.42;;
66603;SDS011;53460;39.612;8.822;2023-11-19T03:07:06;4.47;;;1.48;;
66603;SDS011;53460;39.612;8.822;2023-11-19T03:09:32;4.97;;;1.70;;
66603;SDS011;53460;39.612;8.822;2023-11-19T03:12:00;8.02;;;1.45;;
66603;SDS011;53460;39.612;8.822;2023-11-19T03:14:26;4.40;;;1.17;;
66603;SDS011;53460;39.612;8.822;2023-11-19T03:16:51;4.32;;;1.45;;
66603;SDS011;53460;39.612;8.822;2023-11-19T03:19:17;4.05;;;1.30;;
66603;SDS011;53460;39.612;8.822;2023-11-19T03:21:42;9.13;;;1.70;;
66603;SDS011;53460;39.612;8.822;2023-11-19T03:24:10;8.05;;;1.77;;
66603;SDS011;53460;39.612;8.822;2023-11-19T03:26:38;5.90;;;1.65;;
66603;SDS011;53460;39.612;8.822;2023-11-19T03:29:03;11.57;;;1.92;;
66603;SDS011;53460;39.612;8.822;2023-11-19T03:31:29;6.10;;;1.90;;
66603;SDS011;53460;39.612;8.822;2023-11-19T03:33:55;7.30;;;1.52;;
66603;SDS011;53460;39.612;8.822;2023-11-19T03:36:21;4.78;;;1.35;;
66603;SDS011;53460;39.612;8.822;2023-11-19T03:38:46;7.32;;;2.15;;
66603;SDS011;53460;39.612;8.822;2023-11-19T03:41:15;6.07;;;1.70;;
66603;SDS011;53460;39.612;8.822;2023-11-19T03:43:42;8.95;;;1.48;;
66603;SDS011;53460;39.612;8.822;2023-11-19T03:46:20;5.03;;;1.70;;
66603;SDS011;53460;39.612;8.822;2023-11-19T03:48:46;6.05;;;1.55;;
66603;SDS011;53460;39.612;8.822;2023-11-19T03:51:13;4.53;;;1.33;;
66603;SDS011;53460;39.612;8.822;2023-11-19T03:53:42;5.22;;;1.38;;
66603;SDS011;53460;39.612;8.822;2023-11-19T03:56:08;3.88;;;1.35;;
66603;SDS011;53460;39.612;8.822;2023-11-19T03:58:37;6.25;;;1.60;;
66603;SDS011;53460;39.612;8.822;2023-11-19T04:01:04;6.40;;;1.85;;
66603;SDS011;53460;39.612;8.822;2023-11-19T04:03:30;12.52;;;2.55;;
66603;SDS011;53460;39.612;8.822;2023-11-19T04:05:56;6.40;;;1.73;;
66603;SDS011;53460;39.612;8.822;2023-11-19T04:08:22;4.78;;;1.73;;
66603;SDS011;53460;39.612;8.822;2023-11-19T04:10:48;4.50;;;2.00;;
66603;SDS011;53460;39.612;8.822;2023-11-19T04:13:14;6.95;;;1.38;;
66603;SDS011;53460;39.612;8.822;2023-11-19T04:15:39;5.90;;;1.73;;
66603;SDS011;53460;39.612;8.822;2023-11-19T04:18:05;2.60;;;1.00;;
66603;SDS011;53460;39.612;8.822;2023-11-19T04:20:30;6.78;;;1.58;;
66603;SDS011;53460;39.612;8.822;2023-11-19T04:22:57;6.13;;;1.27;;
66603;SDS011;53460;39.612;8.822;2023-11-19T04:25:22;4.72;;;1.23;;
66603;SDS011;53460;39.612;8.822;2023-11-19T04:27:51;4.55;;;1.40;;
66603;SDS011;53460;39.612;8.822;2023-11-19T04:30:17;3.55;;;1.33;;
66603;SDS011;53460;39.612;8.822;2023-11-19T04:32:43;5.05;;;1.40;;
66603;SDS011;53460;39.612;8.822;2023-11-19T04:35:09;4.03;;;1.23;;
66603;SDS011;53460;39.612;8.822;2023-11-19T04:37:34;6.65;;;1.30;;
66603;SDS011;53460;39.612;8.822;2023-11-19T04:40:00;7.70;;;1.45;;
66603;SDS011;53460;39.612;8.822;2023-11-19T04:42:26;9.43;;;1.70;;
66603;SDS011;53460;39.612;8.822;2023-11-19T04:44:52;3.90;;;1.20;;
66603;SDS011;53460;39.612;8.822;2023-11-19T04:47:17;4.75;;;1.42;;
66603;SDS011;53460;39.612;8.822;2023-11-19T04:49:43;3.00;;;1.70;;
66603;SDS011;53460;39.612;8.822;2023-11-19T04:52:08;5.38;;;1.95;;
66603;SDS011;53460;39.612;8.822;2023-11-19T04:54:34;6.35;;;1.63;;
66603;SDS011;53460;39.612;8.822;2023-11-19T04:57:00;5.95;;;1.80;;
66603;SDS011;53460;39.612;8.822;2023-11-19T04:59:25;4.97;;;1.98;;
66603;SDS011;53460;39.612;8.822;2023-11-19T05:01:52;2.13;;;1.08;;
66603;SDS011;53460;39.612;8.822;2023-11-19T05:04:18;5.50;;;1.50;;
66603;SDS011;53460;39.612;8.822;2023-11-19T05:06:44;3.80;;;0.90;;
66603;SDS011;53460;39.612;8.822;2023-11-19T05:09:09;4.05;;;1.30;;
66603;SDS011;53460;39.612;8.822;2023-11-19T05:11:37;4.20;;;1.48;;
66603;SDS011;53460;39.612;8.822;2023-11-19T05:14:04;3.85;;;1.55;;
66603;SDS011;53460;39.612;8.822;2023-11-19T05:16:30;11.43;;;1.27;;
66603;SDS011;53460;39.612;8.822;2023-11-19T05:18:56;4.47;;;1.23;;
66603;SDS011;53460;39.612;8.822;2023-11-19T05:21:22;3.55;;;0.90;;
66603;SDS011;53460;39.612;8.822;2023-11-19T05:23:47;3.75;;;1.05;;
66603;SDS011;53460;39.612;8.822;2023-11-19T05:26:19;3.00;;;1.05;;
66603;SDS011;53460;39.612;8.822;2023-11-19T05:28:46;3.60;;;0.98;;
66603;SDS011;53460;39.612;8.822;2023-11-19T05:31:12;2.95;;;1.13;;
66603;SDS011;53460;39.612;8.822;2023-11-19T05:33:37;6.82;;;1.05;;
66603;SDS011;53460;39.612;8.822;2023-11-19T05:36:03;5.40;;;1.00;;
66603;SDS011;53460;39.612;8.822;2023-11-19T05:38:30;4.25;;;1.02;;
66603;SDS011;53460;39.612;8.822;2023-11-19T05:40:55;4.38;;;1.40;;
66603;SDS011;53460;39.612;8.822;2023-11-19T05:43:21;1.77;;;0.80;;
66603;SDS011;53460;39.612;8.822;2023-11-19T05:45:47;3.92;;;1.50;;
66603;SDS011;53460;39.612;8.822;2023-11-19T05:48:12;5.25;;;1.58;;
66603;SDS011;53460;39.612;8.822;2023-11-19T05:50:38;6.60;;;1.30;;
66603;SDS011;53460;39.612;8.822;2023-11-19T05:53:04;5.15;;;1.92;;
66603;SDS011;53460;39.612;8.822;2023-11-19T05:55:34;5.35;;;1.85;;
66603;SDS011;53460;39.612;8.822;2023-11-19T05:58:01;7.47;;;1.73;;
66603;SDS011;53460;39.612;8.822;2023-11-19T06:00:26;7.88;;;1.60;;
66603;SDS011;53460;39.612;8.822;2023-11-19T06:02:52;5.25;;;1.33;;
66603;SDS011;53460;39.612;8.822;2023-11-19T06:05:18;3.83;;;1.30;;
66603;SDS011;53460;39.612;8.822;2023-11-19T06:07:43;7.05;;;1.58;;
66603;SDS011;53460;39.612;8.822;2023-11-19T06:10:09;4.63;;;1.30;;
66603;SDS011;53460;39.612;8.822;2023-11-19T06:12:36;5.53;;;1.50;;
66603;SDS011;53460;39.612;8.822;2023-11-19T06:15:06;2.78;;;1.27;;
66603;SDS011;53460;39.612;8.822;2023-11-19T06:17:33;4.10;;;1.30;;
66603;SDS011;53460;39.612;8.822;2023-11-19T06:19:59;9.43;;;1.27;;
66603;SDS011;53460;39.612;8.822;2023-11-19T06:22:25;4.28;;;1.40;;
66603;SDS011;53460;39.612;8.822;2023-11-19T06:24:51;6.65;;;1.23;;
66603;SDS011;53460;39.612;8.822;2023-11-19T06:27:16;3.25;;;1.27;;
66603;SDS011;53460;39.612;8.822;2023-11-19T06:29:42;4.93;;;1.10;;
66603;SDS011;53460;39.612;8.822;2023-11-19T06:32:07;3.92;;;0.98;;
66603;SDS011;53460;39.612;8.822;2023-11-19T06:34:33;3.90;;;1.13;;
66603;SDS011;53460;39.612;8.822;2023-11-19T06:36:59;9.63;;;1.17;;
66603;SDS011;53460;39.612;8.822;2023-11-19T06:39:25;9.98;;;2.22;;
66603;SDS011;53460;39.612;8.822;2023-11-19T06:41:51;6.75;;;2.00;;
66603;SDS011;53460;39.612;8.822;2023-11-19T06:44:17;10.27;;;2.47;;
66603;SDS011;53460;39.612;8.822;2023-11-19T06:46:43;6.90;;;2.53;;
66603;SDS011;53460;39.612;8.822;2023-11-19T06:49:08;7.85;;;2.20;;
66603;SDS011;53460;39.612;8.822;2023-11-19T06:51:34;7.25;;;2.40;;
66603;SDS011;53460;39.612;8.822;2023-11-19T06:53:59;5.70;;;2.05;;
66603;SDS011;53460;39.612;8.822;2023-11-19T06:56:26;6.00;;;2.28;;
66603;SDS011;53460;39.612;8.822;2023-11-19T06:58:52;9.95;;;2.90;;
66603;SDS011;53460;39.612;8.822;2023-11-19T07:01:18;4.40;;;2.13;;
66603;SDS011;53460;39.612;8.822;2023-11-19T07:03:47;8.88;;;2.88;;
66603;SDS011;53460;39.612;8.822;2023-11-19T07:06:13;9.85;;;1.90;;
66603;SDS011;53460;39.612;8.822;2023-11-19T07:08:40;7.28;;;1.90;;
66603;SDS011;53460;39.612;8.822;2023-11-19T07:11:06;7.10;;;1.70;;
66603;SDS011;53460;39.612;8.822;2023-11-19T07:13:35;5.40;;;1.70;;
66603;SDS011;53460;39.612;8.822;2023-11-19T07:16:01;8.02;;;1.67;;
66603;SDS011;53460;39.612;8.822;2023-11-19T07:18:26;7.90;;;2.28;;
66603;SDS011;53460;39.612;8.822;2023-11-19T07:20:52;8.15;;;2.45;;
66603;SDS011;53460;39.612;8.822;2023-11-19T07:23:18;7.65;;;1.90;;
66603;SDS011;53460;39.612;8.822;2023-11-19T07:25:44;6.03;;;2.17;;
66603;SDS011;53460;39.612;8.822;2023-11-19T07:28:12;8.63;;;1.85;;
66603;SDS011;53460;39.612;8.822;2023-11-19T07:30:41;7.53;;;2.58;;
66603;SDS011;53460;39.612;8.822;2023-11-19T07:33:07;9.70;;;2.10;;
66603;SDS011;53460;39.612;8.822;2023-11-19T07:35:33;10.13;;;2.20;;
66603;SDS011;53460;39.612;8.822;2023-11-19T07:37:59;5.57;;;2.22;;
66603;SDS011;53460;39.612;8.822;2023-11-19T07:40:25;4.75;;;1.95;;
66603;SDS011;53460;39.612;8.822;2023-11-19T07:42:50;5.00;;;2.22;;
66603;SDS011;53460;39.612;8.822;2023-11-19T07:45:16;9.90;;;2.35;;
66603;SDS011;53460;39.612;8.822;2023-11-19T07:47:42;5.40;;;2.40;;
66603;SDS011;53460;39.612;8.822;2023-11-19T07:50:11;4.35;;;2.40;;
66603;SDS011;53460;39.612;8.822;2023-11-19T07:52:39;6.22;;;2.50;;
66603;SDS011;53460;39.612;8.822;2023-11-19T07:55:05;5.38;;;2.13;;
66603;SDS011;53460;39.612;8.822;2023-11-19T07:57:30;9.48;;;1.98;;
66603;SDS011;53460;39.612;8.822;2023-11-19T07:59:59;4.10;;;1.77;;
66603;SDS011;53460;39.612;8.822;2023-11-19T08:02:26;7.05;;;1.55;;
66603;SDS011;53460;39.612;8.822;2023-11-19T08:04:52;5.57;;;1.40;;
66603;SDS011;53460;39.612;8.822;2023-11-19T08:07:20;5.63;;;1.48;;
66603;SDS011;53460;39.612;8.822;2023-11-19T08:09:48;5.65;;;1.50;;
66603;SDS011;53460;39.612;8.822;2023-11-19T08:12:14;4.15;;;1.50;;
66603;SDS011;53460;39.612;8.822;2023-11-19T08:14:41;4.03;;;1.10;;
66603;SDS011;53460;39.612;8.822;2023-11-19T08:17:06;6.85;;;1.90;;
66603;SDS011;53460;39.612;8.822;2023-11-19T08:19:32;6.55;;;1.63;;
66603;SDS011;53460;39.612;8.822;2023-11-19T08:21:58;6.72;;;1.20;;
66603;SDS011;53460;39.612;8.822;2023-11-19T08:24:23;4.13;;;1.20;;
66603;SDS011;53460;39.612;8.822;2023-11-19T08:26:49;7.28;;;1.95;;
66603;SDS011;53460;39.612;8.822;2023-11-19T08:29:14;6.22;;;1.92;;
66603;SDS011;53460;39.612;8.822;2023-11-19T08:31:40;3.83;;;1.40;;
66603;SDS011;53460;39.612;8.822;2023-11-19T08:34:05;4.85;;;1.35;;
66603;SDS011;53460;39.612;8.822;2023-11-19T08:36:34;4.20;;;1.98;;
66603;SDS011;53460;39.612;8.822;2023-11-19T08:39:00;7.65;;;3.58;;
66603;SDS011;53460;39.612;8.822;2023-11-19T08:41:26;8.52;;;5.70;;
66603;SDS011;53460;39.612;8.822;2023-11-19T08:43:52;8.43;;;4.97;;
66603;SDS011;53460;39.612;8.822;2023-11-19T08:46:17;7.60;;;3.10;;
66603;SDS011;53460;39.612;8.822;2023-11-19T08:48:43;9.10;;;1.90;;
66603;SDS011;53460;39.612;8.822;2023-11-19T08:51:09;6.05;;;2.60;;
66603;SDS011;53460;39.612;8.822;2023-11-19T08:53:34;7.32;;;4.03;;
66603;SDS011;53460;39.612;8.822;2023-11-19T08:56:00;11.50;;;6.70;;
66603;SDS011;53460;39.612;8.822;2023-11-19T08:58:28;11.05;;;4.88;;
66603;SDS011;53460;39.612;8.822;2023-11-19T09:00:54;6.50;;;3.15;;
66603;SDS011;53460;39.612;8.822;2023-11-19T09:03:19;16.85;;;8.82;;
66603;SDS011;53460;39.612;8.822;2023-11-19T09:05:45;12.02;;;8.13;;
66603;SDS011;53460;39.612;8.822;2023-11-19T09:08:12;6.43;;;2.97;;
66603;SDS011;53460;39.612;8.822;2023-11-19T09:10:38;7.32;;;2.40;;
66603;SDS011;53460;39.612;8.822;2023-11-19T09:13:03;8.18;;;2.40;;
66603;SDS011;53460;39.612;8.822;2023-11-19T09:15:29;6.93;;;1.58;;
66603;SDS011;53460;39.612;8.822;2023-11-19T09:17:55;6.38;;;1.70;;
66603;SDS011;53460;39.612;8.822;2023-11-19T09:20:21;9.55;;;1.98;;
66603;SDS011;53460;39.612;8.822;2023-11-19T09:22:47;5.97;;;1.65;;
66603;SDS011;53460;39.612;8.822;2023-11-19T09:25:12;8.05;;;2.60;;
66603;SDS011;53460;39.612;8.822;2023-11-19T09:27:42;5.82;;;1.90;;
66603;SDS011;53460;39.612;8.822;2023-11-19T09:30:08;5.05;;;2.25;;
66603;SDS011;53460;39.612;8.822;2023-11-19T09:32:34;8.02;;;2.03;;
66603;SDS011;53460;39.612;8.822;2023-11-19T09:35:00;5.93;;;2.97;;
66603;SDS011;53460;39.612;8.822;2023-11-19T09:37:26;9.15;;;3.58;;
66603;SDS011;53460;39.612;8.822;2023-11-19T09:39:51;8.05;;;4.15;;
66603;SDS011;53460;39.612;8.822;2023-11-19T09:42:18;10.43;;;4.10;;
66603;SDS011;53460;39.612;8.822;2023-11-19T09:44:44;14.75;;;4.72;;
66603;SDS011;53460;39.612;8.822;2023-11-19T09:47:11;8.18;;;4.50;;
66603;SDS011;53460;39.612;8.822;2023-11-19T09:49:39;16.95;;;5.68;;
66603;SDS011;53460;39.612;8.822;2023-11-19T09:52:04;10.68;;;4.90;;
66603;SDS011;53460;39.612;8.822;2023-11-19T09:54:30;4.85;;;2.90;;
66603;SDS011;53460;39.612;8.822;2023-11-19T09:56:57;9.23;;;3.85;;
66603;SDS011;53460;39.612;8.822;2023-11-19T09:59:28;12.05;;;4.45;;
66603;SDS011;53460;39.612;8.822;2023-11-19T10:01:54;22.10;;;4.13;;
66603;SDS011;53460;39.612;8.822;2023-11-19T10:04:22;9.75;;;4.13;;
66603;SDS011;53460;39.612;8.822;2023-11-19T10:06:48;9.98;;;4.15;;
66603;SDS011;53460;39.612;8.822;2023-11-19T10:09:16;8.00;;;4.22;;
66603;SDS011;53460;39.612;8.822;2023-11-19T10:11:41;7.35;;;3.72;;
66603;SDS011;53460;39.612;8.822;2023-11-19T10:14:07;4.97;;;2.92;;
66603;SDS011;53460;39.612;8.822;2023-11-19T10:16:34;7.25;;;2.50;;
66603;SDS011;53460;39.612;8.822;2023-11-19T10:19:00;6.18;;;2.50;;
66603;SDS011;53460;39.612;8.822;2023-11-19T10:21:26;5.97;;;2.60;;
66603;SDS011;53460;39.612;8.822;2023-11-19T10:23:56;6.25;;;2.45;;
66603;SDS011;53460;39.612;8.822;2023-11-19T10:26:23;6.93;;;1.98;;
66603;SDS011;53460;39.612;8.822;2023-11-19T10:28:49;10.05;;;4.68;;
66603;SDS011;53460;39.612;8.822;2023-11-19T10:31:18;7.95;;;3.40;;
66603;SDS011;53460;39.612;8.822;2023-11-19T10:33:49;4.75;;;1.50;;
66603;SDS011;53460;39.612;8.822;2023-11-19T10:36:15;6.63;;;2.40;;
66603;SDS011;53460;39.612;8.822;2023-11-19T10:38:51;4.15;;;1.98;;
66603;SDS011;53460;39.612;8.822;2023-11-19T10:41:30;4.75;;;1.67;;
66603;SDS011;53460;39.612;8.822;2023-11-19T10:43:56;6.82;;;2.22;;
66603;SDS011;53460;39.612;8.822;2023-11-19T10:46:22;6.20;;;2.15;;
66603;SDS011;53460;39.612;8.822;2023-11-19T10:48:48;3.78;;;1.45;;
66603;SDS011;53460;39.612;8.822;2023-11-19T10:51:18;11.02;;;1.88;;
66603;SDS011;53460;39.612;8.822;2023-11-19T10:53:49;3.78;;;1.45;;
66603;SDS011;53460;39.612;8.822;2023-11-19T10:56:16;7.03;;;1.42;;
66603;SDS011;53460;39.612;8.822;2023-11-19T10:58:45;5.25;;;1.52;;
66603;SDS011;53460;39.612;8.822;2023-11-19T11:01:16;7.18;;;1.33;;
66603;SDS011;53460;39.612;8.822;2023-11-19T11:03:46;7.00;;;1.52;;
66603;SDS011;53460;39.612;8.822;2023-11-19T11:06:12;3.08;;;1.30;;
66603;SDS011;53460;39.612;8.822;2023-11-19T11:08:38;4.53;;;1.40;;
66603;SDS011;53460;39.612;8.822;2023-11-19T11:11:04;4.63;;;1.48;;
66603;SDS011;53460;39.612;8.822;2023-11-19T11:13:31;3.08;;;1.42;;
66603;SDS011;53460;39.612;8.822;2023-11-19T11:15:57;8.55;;;1.33;;
66603;SDS011;53460;39.612;8.822;2023-11-19T11:18:23;5.20;;;1.55;;
66603;SDS011;53460;39.612;8.822;2023-11-19T11:21:14;3.15;;;1.40;;
66603;SDS011;53460;39.612;8.822;2023-11-19T11:37:46;5.25;;;1.23;;
66603;SDS011;53460;39.612;8.822;2023-11-19T11:40:15;8.15;;;1.55;;
66603;SDS011;53460;39.612;8.822;2023-11-19T11:42:43;7.63;;;1.88;;
66603;SDS011;53460;39.612;8.822;2023-11-19T11:45:10;2.78;;;1.10;;
66603;SDS011;53460;39.612;8.822;2023-11-19T11:50:17;3.92;;;1.10;;
66603;SDS011;53460;39.612;8.822;2023-11-19T11:55:24;4.45;;;1.88;;
66603;SDS011;53460;39.612;8.822;2023-11-19T11:57:49;3.50;;;1.30;;
66603;SDS011;53460;39.612;8.822;2023-11-19T12:00:21;6.03;;;1.67;;
66603;SDS011;53460;39.612;8.822;2023-11-19T12:02:51;4.55;;;1.20;;
66603;SDS011;53460;39.612;8.822;2023-11-19T12:05:17;4.10;;;0.98;;
66603;SDS011;53460;39.612;8.822;2023-11-19T12:07:47;4.78;;;1.27;;
66603;SDS011;53460;39.612;8.822;2023-11-19T12:10:25;4.50;;;1.20;;
66603;SDS011;53460;39.612;8.822;2023-11-19T12:12:58;4.80;;;1.60;;
66603;SDS011;53460;39.612;8.822;2023-11-19T12:15:24;5.10;;;1.42;;
66603;SDS011;53460;39.612;8.822;2023-11-19T12:17:51;4.53;;;0.95;;
66603;SDS011;53460;39.612;8.822;2023-11-19T12:20:18;3.25;;;1.10;;
66603;SDS011;53460;39.612;8.822;2023-11-19T12:22:45;4.00;;;1.50;;
66603;SDS011;53460;39.612;8.822;2023-11-19T12:25:12;6.25;;;1.45;;
66603;SDS011;53460;39.612;8.822;2023-11-19T12:27:41;2.72;;;1.02;;
66603;SDS011;53460;39.612;8.822;2023-11-19T12:30:08;4.38;;;1.30;;
66603;SDS011;53460;39.612;8.822;2023-11-19T12:32:37;6.45;;;1.08;;
66603;SDS011;53460;39.612;8.822;2023-11-19T12:35:04;5.30;;;1.45;;
66603;SDS011;53460;39.612;8.822;2023-11-19T12:37:29;6.05;;;1.20;;
66603;SDS011;53460;39.612;8.822;2023-11-19T12:39:57;3.30;;;1.45;;
66603;SDS011;53460;39.612;8.822;2023-11-19T12:42:36;4.18;;;1.35;;
66603;SDS011;53460;39.612;8.822;2023-11-19T12:45:02;2.47;;;1.40;;
66603;SDS011;53460;39.612;8.822;2023-11-19T12:47:28;3.67;;;2.10;;
66603;SDS011;53460;39.612;8.822;2023-11-19T12:49:56;9.30;;;2.08;;
66603;SDS011;53460;39.612;8.822;2023-11-19T12:52:22;4.20;;;1.40;;
66603;SDS011;53460;39.612;8.822;2023-11-19T12:54:48;4.70;;;1.45;;
66603;SDS011;53460;39.612;8.822;2023-11-19T12:57:14;9.98;;;1.45;;
66603;SDS011;53460;39.612;8.822;2023-11-19T12:59:41;6.22;;;1.48;;
66603;SDS011;53460;39.612;8.822;2023-11-19T13:02:06;4.53;;;1.17;;
66603;SDS011;53460;39.612;8.822;2023-11-19T13:04:33;5.20;;;1.55;;
66603;SDS011;53460;39.612;8.822;2023-11-19T13:06:59;5.55;;;1.40;;
66603;SDS011;53460;39.612;8.822;2023-11-19T13:09:25;4.53;;;1.30;;
66603;SDS011;53460;39.612;8.822;2023-11-19T13:11:52;5.53;;;1.20;;
66603;SDS011;53460;39.612;8.822;2023-11-19T13:14:18;4.63;;;1.17;;
66603;SDS011;53460;39.612;8.822;2023-11-19T13:16:44;6.82;;;1.80;;
66603;SDS011;53460;39.612;8.822;2023-11-19T13:19:12;3.08;;;1.50;;
66603;SDS011;53460;39.612;8.822;2023-11-19T13:21:38;5.00;;;1.25;;
66603;SDS011;53460;39.612;8.822;2023-11-19T13:24:07;4.93;;;1.67;;
66603;SDS011;53460;39.612;8.822;2023-11-19T13:26:33;4.35;;;1.30;;
66603;SDS011;53460;39.612;8.822;2023-11-19T13:29:00;4.70;;;1.40;;
66603;SDS011;53460;39.612;8.822;2023-11-19T13:31:26;5.13;;;1.27;;
66603;SDS011;53460;39.612;8.822;2023-11-19T13:33:51;4.63;;;1.48;;
66603;SDS011;53460;39.612;8.822;2023-11-19T13:36:17;5.13;;;1.45;;
66603;SDS011;53460;39.612;8.822;2023-11-19T13:38:43;5.95;;;1.42;;
66603;SDS011;53460;39.612;8.822;2023-11-19T13:41:12;7.90;;;1.95;;
66603;SDS011;53460;39.612;8.822;2023-11-19T13:43:39;4.00;;;1.40;;
66603;SDS011;53460;39.612;8.822;2023-11-19T13:46:04;5.25;;;1.63;;
66603;SDS011;53460;39.612;8.822;2023-11-19T13:48:31;4.25;;;1.23;;
66603;SDS011;53460;39.612;8.822;2023-11-19T13:50:56;5.75;;;1.63;;
66603;SDS011;53460;39.612;8.822;2023-11-19T13:53:22;4.50;;;1.33;;
66603;SDS011;53460;39.612;8.822;2023-11-19T13:55:51;8.98;;;1.60;;
66603;SDS011;53460;39.612;8.822;2023-11-19T13:58:17;4.03;;;1.08;;
66603;SDS011;53460;39.612;8.822;2023-11-19T14:00:42;8.05;;;2.28;;
66603;SDS011;53460;39.612;8.822;2023-11-19T14:03:08;4.97;;;1.30;;
66603;SDS011;53460;39.612;8.822;2023-11-19T14:05:37;8.18;;;1.50;;
66603;SDS011;53460;39.612;8.822;2023-11-19T14:08:04;7.18;;;1.30;;
66603;SDS011;53460;39.612;8.822;2023-11-19T14:10:39;4.13;;;1.30;;
66603;SDS011;53460;39.612;8.822;2023-11-19T14:13:08;10.05;;;1.65;;
66603;SDS011;53460;39.612;8.822;2023-11-19T14:15:34;5.05;;;1.40;;
66603;SDS011;53460;39.612;8.822;2023-11-19T14:18:01;6.15;;;1.50;;
66603;SDS011;53460;39.612;8.822;2023-11-19T14:20:27;3.40;;;1.25;;
66603;SDS011;53460;39.612;8.822;2023-11-19T14:22:53;6.68;;;2.10;;
66603;SDS011;53460;39.612;8.822;2023-11-19T14:25:18;3.90;;;1.23;;
66603;SDS011;53460;39.612;8.822;2023-11-19T14:27:44;8.65;;;1.50;;
66603;SDS011;53460;39.612;8.822;2023-11-19T14:30:13;6.40;;;1.58;;
66603;SDS011;53460;39.612;8.822;2023-11-19T14:32:39;4.60;;;1.23;;
66603;SDS011;53460;39.612;8.822;2023-11-19T14:35:07;5.95;;;1.40;;
66603;SDS011;53460;39.612;8.822;2023-11-19T14:37:33;6.28;;;2.05;;
66603;SDS011;53460;39.612;8.822;2023-11-19T14:39:59;4.07;;;1.13;;
66603;SDS011;53460;39.612;8.822;2023-11-19T14:42:25;6.78;;;2.13;;
66603;SDS011;53460;39.612;8.822;2023-11-19T14:44:51;4.93;;;1.42;;
66603;SDS011;53460;39.612;8.822;2023-11-19T14:47:21;3.13;;;1.20;;
66603;SDS011;53460;39.612;8.822;2023-11-19T14:49:48;2.53;;;1.15;;
66603;SDS011;53460;39.612;8.822;2023-11-19T14:52:14;4.50;;;1.33;;
66603;SDS011;53460;39.612;8.822;2023-11-19T14:54:40;6.57;;;1.42;;
66603;SDS011;53460;39.612;8.822;2023-11-19T14:57:05;5.68;;;2.42;;
66603;SDS011;53460;39.612;8.822;2023-11-19T14:59:33;6.10;;;1.48;;
66603;SDS011;53460;39.612;8.822;2023-11-19T15:02:03;5.88;;;2.08;;
66603;SDS011;53460;39.612;8.822;2023-11-19T15:04:29;4.25;;;1.25;;
66603;SDS011;53460;39.612;8.822;2023-11-19T15:06:58;3.42;;;1.23;;
66603;SDS011;53460;39.612;8.822;2023-11-19T15:09:24;7.53;;;1.98;;